^^
Your Local Weather - Clay, NY Station Historical Data
Daily Summary for January 7, 2017 Units:  Metric    English   Both
« Previous Day
Next Day »
Daily Weekly Monthly Yearly Custom
  High: Low: Average:
Temperature: -4.6 °C -10.9 °C -8.3 °C
Dew Point: -11.3 °C -16.2 °C -13.8 °C
Humidity: 76% 56% 65%
Wind Speed: 8km/h 0km/h 2.4km/h
Wind Gust: 20.9km/h - -
Wind- - West
Pressure: 1027.3 hPa 1021.6 hPa -
Precipitation: 0 mm    
Historical Graphs
 
 
Tabular Data for January 7, 2017
Time Temperature Dew Point Pressure Wind Wind Speed Wind Gust Humidity Rainfall Rate (Hourly) solar
00:02 -10.2 °C -14.1 °C 1025.3 hPa SW 3.2 km/h 3.2 km/h 73% 0 mm 0 W/m2
00:08 -10.2 °C -14.3 °C 1024.9 hPa SW 3.2 km/h 8 km/h 72% 0 mm 0 W/m2
00:14 -10.2 °C -14.3 °C 1024.9 hPa SW 3.2 km/h 4.8 km/h 72% 0 mm 0 W/m2
00:20 -10.1 °C -14.4 °C 1024.9 hPa SW 3.2 km/h 3.2 km/h 71% 0 mm 0 W/m2
00:26 -10.1 °C -14.4 °C 1024.9 hPa SW 4.8 km/h 6.4 km/h 71% 0 mm 0 W/m2
00:32 -10.1 °C -14.5 °C 1024.9 hPa WSW 4.8 km/h 4.8 km/h 70% 0 mm 0 W/m2
00:38 -9.9 °C -14.6 °C 1025.3 hPa WSW 4.8 km/h 4.8 km/h 69% 0 mm 0 W/m2
00:44 -9.9 °C -14.7 °C 1025.3 hPa WSW 4.8 km/h 6.4 km/h 68% 0 mm 0 W/m2
00:50 -9.8 °C -14.8 °C 1025.3 hPa SW 4.8 km/h 8 km/h 67% 0 mm 0 W/m2
00:56 -9.7 °C -14.9 °C 1025.3 hPa West 4.8 km/h 9.7 km/h 66% 0 mm 0 W/m2
01:02 -9.6 °C -14.8 °C 1025.6 hPa SSW 3.2 km/h 8 km/h 66% 0 mm 0 W/m2
01:08 -9.4 °C -14.8 °C 1025.6 hPa SW 3.2 km/h 9.7 km/h 65% 0 mm 0 W/m2
01:14 -9.2 °C -14.8 °C 1025.6 hPa SW 4.8 km/h 9.7 km/h 64% 0 mm 0 W/m2
01:20 -9.1 °C -14.9 °C 1025.6 hPa West 6.4 km/h 6.4 km/h 63% 0 mm 0 W/m2
01:26 -9.1 °C -15 °C 1025.6 hPa West 4.8 km/h 8 km/h 62% 0 mm 0 W/m2
01:32 -8.9 °C -15.1 °C 1025.6 hPa West 4.8 km/h 11.3 km/h 61% 0 mm 0 W/m2
01:38 -8.9 °C -15.3 °C 1025.6 hPa SW 4.8 km/h 11.3 km/h 60% 0 mm 0 W/m2
01:44 -8.9 °C -15.3 °C 1025.6 hPa SW 4.8 km/h 6.4 km/h 60% 0 mm 0 W/m2
01:50 -8.9 °C -15.3 °C 1026 hPa WSW 4.8 km/h 4.8 km/h 60% 0 mm 0 W/m2
01:56 -8.9 °C -15.7 °C 1025.6 hPa SSW 4.8 km/h 6.4 km/h 58% 0 mm 0 W/m2
02:02 -9.1 °C -15.6 °C 1025.6 hPa SW 4.8 km/h 4.8 km/h 59% 0 mm 0 W/m2
02:08 -9.2 °C -15.7 °C 1025.6 hPa West 3.2 km/h 4.8 km/h 59% 0 mm 0 W/m2
02:14 -9.3 °C -15.8 °C 1026 hPa SW 4.8 km/h 9.7 km/h 59% 0 mm 0 W/m2
02:20 -9.4 °C -15.7 °C 1026 hPa SW 4.8 km/h 4.8 km/h 60% 0 mm 0 W/m2
02:26 -9.5 °C -15.8 °C 1026 hPa SW 3.2 km/h 4.8 km/h 60% 0 mm 0 W/m2
02:32 -9.6 °C -15.9 °C 1026 hPa SW 3.2 km/h 3.2 km/h 60% 0 mm 0 W/m2
02:38 -9.7 °C -16 °C 1026 hPa WSW 3.2 km/h 8 km/h 60% 0 mm 0 W/m2
02:44 -9.7 °C -16 °C 1026.3 hPa West 3.2 km/h 8 km/h 60% 0 mm 0 W/m2
02:50 -9.8 °C -16.1 °C 1026 hPa West 3.2 km/h 3.2 km/h 60% 0 mm 0 W/m2
02:56 -9.8 °C -16.2 °C 1026 hPa SW 3.2 km/h 8 km/h 60% 0 mm 0 W/m2
03:02 -9.9 °C -16.2 °C 1026.3 hPa West 3.2 km/h 3.2 km/h 60% 0 mm 0 W/m2
03:08 -9.9 °C -16.1 °C 1026.3 hPa West 1.6 km/h 3.2 km/h 61% 0 mm 0 W/m2
03:14 -10.1 °C -15.9 °C 1026.3 hPa Calm   1.6 km/h 62% 0 mm 0 W/m2
03:20 -10.2 °C -16.1 °C 1026.3 hPa Calm     62% 0 mm 0 W/m2
03:26 -10.3 °C -16.2 °C 1026.3 hPa Calm   1.6 km/h 62% 0 mm 0 W/m2
03:32 -10.4 °C -16.1 °C 1026.3 hPa Calm     63% 0 mm 0 W/m2
03:38 -10.6 °C -15.9 °C 1026.3 hPa Calm     65% 0 mm 0 W/m2
03:44 -10.7 °C -15.5 °C 1026.3 hPa Calm     68% 0 mm 0 W/m2
03:50 -10.9 °C -15.7 °C 1026.3 hPa Calm     68% 0 mm 0 W/m2
03:56 -10.8 °C -15.6 °C 1026.3 hPa Calm     68% 0 mm 0 W/m2
04:02 -10.7 °C -15.7 °C 1026.3 hPa Calm     67% 0 mm 0 W/m2
04:08 -10.6 °C -15.6 °C 1026.3 hPa Calm     67% 0 mm 0 W/m2
04:14 -10.6 °C -15.7 °C 1026.3 hPa Calm     66% 0 mm 0 W/m2
04:20 -10.6 °C -15.5 °C 1026.3 hPa Calm     67% 0 mm 0 W/m2
04:26 -10.5 °C -15.3 °C 1026.3 hPa Calm     68% 0 mm 0 W/m2
04:32 -10.3 °C -15.5 °C 1026.3 hPa Calm     66% 0 mm 0 W/m2
04:38 -10.1 °C -15.4 °C 1026.6 hPa Calm     65% 0 mm 0 W/m2
04:44 -9.9 °C -15.3 °C 1026.6 hPa West 1.6 km/h 1.6 km/h 65% 0 mm 0 W/m2
04:50 -9.8 °C -15 °C 1026.6 hPa West 1.6 km/h 1.6 km/h 66% 0 mm 0 W/m2
04:56 -9.7 °C -15.1 °C 1026.3 hPa West 1.6 km/h 4.8 km/h 65% 0 mm 0 W/m2
05:02 -9.7 °C -15.2 °C 1026.6 hPa West 1.6 km/h 1.6 km/h 64% 0 mm 0 W/m2
05:08 -9.7 °C -15.2 °C 1026.6 hPa West 1.6 km/h 3.2 km/h 64% 0 mm 0 W/m2
05:14 -9.7 °C -15.2 °C 1026.6 hPa West 1.6 km/h 3.2 km/h 64% 0 mm 0 W/m2
05:20 -9.7 °C -15.2 °C 1026.6 hPa SSW 1.6 km/h 1.6 km/h 64% 0 mm 0 W/m2
05:26 -9.6 °C -14.9 °C 1026.6 hPa SSW 1.6 km/h 3.2 km/h 65% 0 mm 0 W/m2
05:32 -9.6 °C -14.9 °C 1027 hPa SSW 1.6 km/h 4.8 km/h 65% 0 mm 0 W/m2
05:38 -9.6 °C -14.9 °C 1027 hPa SW 1.6 km/h 6.4 km/h 65% 0 mm 0 W/m2
05:44 -9.5 °C -15.1 °C 1027.3 hPa SW 1.6 km/h 3.2 km/h 64% 0 mm 0 W/m2
05:50 -9.4 °C -15 °C 1027 hPa SW 1.6 km/h 1.6 km/h 64% 0 mm 0 W/m2
05:56 -9.4 °C -15 °C 1027 hPa Calm   3.2 km/h 64% 0 mm 0 W/m2
06:02 -9.4 °C -15.1 °C 1027 hPa SW 1.6 km/h 1.6 km/h 63% 0 mm 0 W/m2
06:08 -9.4 °C -15.2 °C 1027 hPa WSW 1.6 km/h 6.4 km/h 63% 0 mm 0 W/m2
06:14 -9.4 °C -15.1 °C 1027 hPa WSW 1.6 km/h 1.6 km/h 63% 0 mm 0 W/m2
06:20 -9.4 °C -15.3 °C 1027 hPa West 1.6 km/h 1.6 km/h 62% 0 mm 0 W/m2
06:26 -9.3 °C -15.1 °C 1027 hPa West 1.6 km/h 1.6 km/h 63% 0 mm 0 W/m2
06:32 -9.3 °C -15.3 °C 1026.6 hPa West 1.6 km/h 6.4 km/h 62% 0 mm 0 W/m2
06:38 -9.4 °C -15.3 °C 1027 hPa West 1.6 km/h 6.4 km/h 62% 0 mm 0 W/m2
06:44 -9.4 °C -15 °C 1027 hPa SW 1.6 km/h 8 km/h 64% 0 mm 0 W/m2
06:50 -9.6 °C -14.4 °C 1027 hPa SW 4.8 km/h 4.8 km/h 68% 0 mm 0 W/m2
06:56 -9.7 °C -14.2 °C 1027 hPa SW 3.2 km/h 4.8 km/h 70% 0 mm 0 W/m2
07:02 -9.9 °C -14 °C 1027 hPa WSW 1.6 km/h 3.2 km/h 72% 0 mm 0 W/m2
07:08 -10 °C -13.9 °C 1027 hPa WSW 3.2 km/h 3.2 km/h 73% 0 mm 0 W/m2
07:14 -10.1 °C -13.8 °C 1027.3 hPa WSW 1.6 km/h 1.6 km/h 74% 0 mm 0 W/m2
07:20 -10.1 °C -13.9 °C 1027.3 hPa Calm   1.6 km/h 74% 0 mm 0 W/m2
07:26 -10.2 °C -14.1 °C 1027.3 hPa Calm   3.2 km/h 73% 0 mm 0 W/m2
07:32 -10.2 °C -14.2 °C 1027.3 hPa Calm     73% 0 mm 0 W/m2
07:38 -10.3 °C -14.2 °C 1027.3 hPa Calm     73% 0 mm 0 W/m2
07:44 -10.4 °C -14.2 °C 1027 hPa Calm     74% 0 mm 5 W/m2
07:50 -10.4 °C -14.1 °C 1027 hPa Calm     74% 0 mm 11 W/m2
07:56 -10.3 °C -13.8 °C 1026.6 hPa Calm     76% 0 mm 21 W/m2
08:02 -10.3 °C -13.8 °C 1026.6 hPa Calm     76% 0 mm 40 W/m2
08:08 -10.2 °C -13.8 °C 1026.6 hPa Calm   3.2 km/h 75% 0 mm 51 W/m2
08:14 -9.9 °C -13.8 °C 1027 hPa Calm     73% 0 mm 49 W/m2
08:20 -9.7 °C -13.6 °C 1027 hPa Calm     73% 0 mm 56 W/m2
08:26 -9.5 °C -14.1 °C 1027 hPa Calm     69% 0 mm 70 W/m2
08:32 -9.3 °C -14.2 °C 1027 hPa Calm     68% 0 mm 88 W/m2
08:38 -9.2 °C -14.3 °C 1027 hPa West 1.6 km/h 3.2 km/h 66% 0 mm 84 W/m2
08:44 -9.1 °C -14.3 °C 1027 hPa West 1.6 km/h 1.6 km/h 66% 0 mm 102 W/m2
08:50 -9 °C -14.6 °C 1026.6 hPa Calm   1.6 km/h 64% 0 mm 79 W/m2
08:56 -9 °C -14.4 °C 1027 hPa SW 1.6 km/h 6.4 km/h 65% 0 mm 72 W/m2
09:02 -8.9 °C -14.3 °C 1027.3 hPa Calm   4.8 km/h 65% 0 mm 76 W/m2
09:08 -8.9 °C -14.1 °C 1027 hPa SW 1.6 km/h 4.8 km/h 66% 0 mm 97 W/m2
09:14 -8.9 °C -13.9 °C 1027.3 hPa WNW 1.6 km/h 3.2 km/h 67% 0 mm 95 W/m2
09:20 -8.8 °C -13.8 °C 1027.3 hPa WSW 1.6 km/h 1.6 km/h 67% 0 mm 98 W/m2
09:26 -8.8 °C -13.8 °C 1027.3 hPa WSW 1.6 km/h 1.6 km/h 67% 0 mm 97 W/m2
09:32 -8.8 °C -14.1 °C 1027.3 hPa WSW 1.6 km/h 4.8 km/h 66% 0 mm 114 W/m2
09:38 -8.8 °C -14 °C 1027.3 hPa WSW 1.6 km/h 6.4 km/h 66% 0 mm 123 W/m2
09:44 -8.8 °C -14 °C 1027.3 hPa WNW 1.6 km/h 3.2 km/h 66% 0 mm 142 W/m2
09:50 -8.7 °C -13.7 °C 1027.3 hPa WNW 1.6 km/h 1.6 km/h 67% 0 mm 148 W/m2
09:56 -8.5 °C -13.3 °C 1027.3 hPa WSW 1.6 km/h 3.2 km/h 68% 0 mm 214 W/m2
10:02 -8.2 °C -13.4 °C 1027.3 hPa West 1.6 km/h 6.4 km/h 66% 0 mm 283 W/m2
10:08 -7.9 °C -12.8 °C 1027.3 hPa West 3.2 km/h 6.4 km/h 68% 0 mm 255 W/m2
10:14 -7.7 °C -12.9 °C 1027.3 hPa SW 1.6 km/h 3.2 km/h 66% 0 mm 396 W/m2
10:20 -7.5 °C -12.9 °C 1027.3 hPa SW 1.6 km/h 1.6 km/h 65% 0 mm 443 W/m2
10:26 -7.4 °C -12.9 °C 1027.3 hPa SSW 1.6 km/h 3.2 km/h 65% 0 mm 151 W/m2
10:32 -8 °C -13.2 °C 1027.3 hPa SSW 1.6 km/h 1.6 km/h 66% 0 mm 181 W/m2
10:38 -7.9 °C -12.8 °C 1027.3 hPa SSW 1.6 km/h 3.2 km/h 68% 0 mm 171 W/m2
10:44 -7.9 °C -13.1 °C 1027.3 hPa SSW 1.6 km/h 1.6 km/h 66% 0 mm 341 W/m2
10:50 -7 °C -12.3 °C 1027.3 hPa SW 1.6 km/h 1.6 km/h 66% 0 mm 410 W/m2
10:56 -7.6 °C -13 °C 1027 hPa WSW 3.2 km/h 9.7 km/h 65% 0 mm 244 W/m2
11:02 -7.4 °C -12.5 °C 1027 hPa WSW 3.2 km/h 3.2 km/h 67% 0 mm 271 W/m2
11:08 -7.3 °C -12.6 °C 1027 hPa West 1.6 km/h 4.8 km/h 66% 0 mm 239 W/m2
11:14 -7.3 °C -12.4 °C 1027 hPa WNW 1.6 km/h 4.8 km/h 67% 0 mm 218 W/m2
11:20 -7.1 °C -12.2 °C 1026.6 hPa WSW 1.6 km/h 1.6 km/h 67% 0 mm 239 W/m2
11:26 -7.1 °C -12.3 °C 1026.6 hPa SW 1.6 km/h 6.4 km/h 66% 0 mm 221 W/m2
11:32 -7.3 °C -12.4 °C 1026.6 hPa SW 3.2 km/h 3.2 km/h 67% 0 mm 223 W/m2
11:38 -7.2 °C -12.3 °C 1026.6 hPa WSW 1.6 km/h 4.8 km/h 67% 0 mm 257 W/m2
11:44 -7.1 °C -12.4 °C 1026.6 hPa WSW 1.6 km/h 1.6 km/h 66% 0 mm 251 W/m2
11:50 -6.9 °C -12.2 °C 1026.3 hPa WSW 1.6 km/h 1.6 km/h 66% 0 mm 241 W/m2
11:56 -6.7 °C -12 °C 1026.3 hPa West 1.6 km/h 4.8 km/h 66% 0 mm 269 W/m2
12:02 -6.9 °C -12.2 °C 1026 hPa West 1.6 km/h 1.6 km/h 66% 0 mm 230 W/m2
12:08 -6.8 °C -12.1 °C 1026 hPa West 1.6 km/h 3.2 km/h 66% 0 mm 232 W/m2
12:14 -6.7 °C -11.8 °C 1026 hPa West 1.6 km/h 3.2 km/h 67% 0 mm 251 W/m2
12:20 -6.6 °C -12.1 °C 1025.6 hPa West 1.6 km/h 1.6 km/h 65% 0 mm 295 W/m2
12:26 -6.3 °C -11.8 °C 1025.6 hPa West 1.6 km/h 4.8 km/h 65% 0 mm 336 W/m2
12:32 -6.4 °C -11.7 °C 1025.6 hPa West 1.6 km/h 3.2 km/h 66% 0 mm 350 W/m2
12:38 -6.3 °C -11.7 °C 1025.3 hPa West 3.2 km/h 4.8 km/h 66% 0 mm 264 W/m2
12:44 -6.4 °C -11.8 °C 1025.3 hPa West 3.2 km/h 3.2 km/h 66% 0 mm 221 W/m2
12:50 -6.1 °C -11.8 °C 1024.9 hPa West 1.6 km/h 1.6 km/h 64% 0 mm 320 W/m2
12:56 -6.2 °C -11.7 °C 1024.9 hPa Calm   1.6 km/h 65% 0 mm 227 W/m2
13:02 -6.5 °C -12 °C 1024.6 hPa West 1.6 km/h 4.8 km/h 65% 0 mm 297 W/m2
13:08 -6.1 °C -11.4 °C 1024.6 hPa NNW 1.6 km/h 6.4 km/h 66% 0 mm 283 W/m2
13:14 -5.8 °C -11.6 °C 1024.6 hPa NNW 3.2 km/h 4.8 km/h 64% 0 mm 401 W/m2
13:20 -5.9 °C -11.4 °C 1024.6 hPa WSW 3.2 km/h 3.2 km/h 65% 0 mm 144 W/m2
13:26 -6.3 °C -11.7 °C 1024.6 hPa WSW 1.6 km/h 3.2 km/h 66% 0 mm 401 W/m2
13:32 -6.2 °C -11.6 °C 1024.6 hPa WSW 1.6 km/h 1.6 km/h 66% 0 mm 362 W/m2
13:38 -5.8 °C -11.7 °C 1024.6 hPa WNW 1.6 km/h 3.2 km/h 63% 0 mm 362 W/m2
13:44 -5.6 °C -11.3 °C 1024.3 hPa NW 3.2 km/h 3.2 km/h 64% 0 mm 406 W/m2
13:50 -4.9 °C -11.5 °C 1024.3 hPa NW 3.2 km/h 3.2 km/h 60% 0 mm 445 W/m2
13:56 -4.9 °C -11.7 °C 1023.9 hPa NW 1.6 km/h 4.8 km/h 59% 0 mm 404 W/m2
14:02 -4.9 °C -11.7 °C 1023.9 hPa NW 1.6 km/h 3.2 km/h 59% 0 mm 418 W/m2
14:08 -5.2 °C -11.8 °C 1023.9 hPa NW 3.2 km/h 6.4 km/h 60% 0 mm 387 W/m2
14:14 -5.3 °C -12.1 °C 1023.9 hPa SSW 1.6 km/h 3.2 km/h 59% 0 mm 387 W/m2
14:20 -5.1 °C -11.4 °C 1023.6 hPa SSE 1.6 km/h 1.6 km/h 61% 0 mm 387 W/m2
14:26 -5.3 °C -11.3 °C 1023.6 hPa West 1.6 km/h 1.6 km/h 63% 0 mm 429 W/m2
14:32 -4.7 °C -11.4 °C 1023.6 hPa WNW 1.6 km/h 1.6 km/h 59% 0 mm 418 W/m2
14:38 -4.6 °C -12 °C 1023.6 hPa NW 1.6 km/h 4.8 km/h 56% 0 mm 346 W/m2
14:44 -4.8 °C -11.6 °C 1023.6 hPa WSW 3.2 km/h 3.2 km/h 59% 0 mm 332 W/m2
14:50 -4.8 °C -11.8 °C 1023.6 hPa NNW 1.6 km/h 3.2 km/h 58% 0 mm 313 W/m2
14:56 -4.9 °C -11.7 °C 1023.6 hPa NW 3.2 km/h 4.8 km/h 59% 0 mm 304 W/m2
15:02 -5.2 °C -11.7 °C 1023.6 hPa North 4.8 km/h 6.4 km/h 60% 0 mm 257 W/m2
15:08 -5.3 °C -12.1 °C 1023.6 hPa NNW 4.8 km/h 6.4 km/h 59% 0 mm 237 W/m2
15:14 -5.8 °C -12.3 °C 1023.6 hPa NNW 4.8 km/h 6.4 km/h 60% 0 mm 49 W/m2
15:20 -6.1 °C -12.2 °C 1023.6 hPa NNW 3.2 km/h 3.2 km/h 62% 0 mm 35 W/m2
15:26 -6.2 °C -12.3 °C 1023.6 hPa NNW 1.6 km/h 3.2 km/h 62% 0 mm 33 W/m2
15:32 -6.3 °C -12.4 °C 1023.6 hPa NNW 3.2 km/h 4.8 km/h 62% 0 mm 35 W/m2
15:38 -6.3 °C -12.1 °C 1023.6 hPa NNW 1.6 km/h 4.8 km/h 64% 0 mm 33 W/m2
15:44 -6.4 °C -12.3 °C 1023.6 hPa NNW 1.6 km/h 6.4 km/h 63% 0 mm 39 W/m2
15:50 -6.4 °C -12.2 °C 1023.6 hPa NNW 1.6 km/h 1.6 km/h 64% 0 mm 35 W/m2
15:56 -6.5 °C -12.2 °C 1023.6 hPa Calm   1.6 km/h 64% 0 mm 42 W/m2
16:02 -6.5 °C -12.2 °C 1023.6 hPa Calm   1.6 km/h 64% 0 mm 46 W/m2
16:08 -6.5 °C -12.2 °C 1023.6 hPa Calm   3.2 km/h 64% 0 mm 47 W/m2
16:14 -6.4 °C -12.3 °C 1023.6 hPa NNW 1.6 km/h 1.6 km/h 63% 0 mm 37 W/m2
16:20 -6.5 °C -12.4 °C 1023.9 hPa NNW 1.6 km/h 1.6 km/h 63% 0 mm 21 W/m2
16:26 -6.6 °C -12.2 °C 1023.9 hPa NNW 1.6 km/h 1.6 km/h 64% 0 mm 14 W/m2
16:32 -6.7 °C -12.3 °C 1023.9 hPa Calm     64% 0 mm 9 W/m2
16:38 -6.8 °C -12.7 °C 1023.9 hPa Calm     63% 0 mm 9 W/m2
16:44 -6.9 °C -12.6 °C 1023.6 hPa Calm     64% 0 mm 5 W/m2
16:50 -7.2 °C -12.4 °C 1023.6 hPa Calm     66% 0 mm 5 W/m2
16:56 -7.3 °C -12.4 °C 1023.6 hPa Calm     67% 0 mm 5 W/m2
17:02 -7.4 °C -12.3 °C 1023.6 hPa Calm     68% 0 mm 0 W/m2
17:08 -7.6 °C -12.3 °C 1023.6 hPa Calm     69% 0 mm 0 W/m2
17:14 -7.7 °C -12.4 °C 1023.6 hPa Calm     69% 0 mm 0 W/m2
17:20 -7.8 °C -12.3 °C 1023.6 hPa Calm     70% 0 mm 0 W/m2
17:26 -7.9 °C -12.1 °C 1023.6 hPa Calm     72% 0 mm 0 W/m2
17:32 -8.1 °C -12.2 °C 1023.6 hPa Calm     72% 0 mm 0 W/m2
17:38 -8.2 °C -12.3 °C 1023.6 hPa Calm     72% 0 mm 0 W/m2
17:44 -8.3 °C -12.3 °C 1023.6 hPa Calm     73% 0 mm 0 W/m2
17:50 -8.6 °C -12.6 °C 1023.6 hPa Calm     73% 0 mm 0 W/m2
17:56 -8.8 °C -12.8 °C 1023.6 hPa Calm     73% 0 mm 0 W/m2
18:02 -8.9 °C -12.7 °C 1023.6 hPa Calm     74% 0 mm 0 W/m2
18:08 -8.9 °C -12.5 °C 1023.6 hPa Calm     75% 0 mm 0 W/m2
18:14 -8.8 °C -12.3 °C 1023.6 hPa Calm     76% 0 mm 0 W/m2
18:20 -8.7 °C -12.3 °C 1023.6 hPa Calm     75% 0 mm 0 W/m2
18:26 -8.2 °C -12.2 °C 1023.6 hPa Calm     73% 0 mm 0 W/m2
18:32 -7.9 °C -12.2 °C 1023.6 hPa Calm     71% 0 mm 0 W/m2
18:38 -7.6 °C -12.1 °C 1023.6 hPa Calm   1.6 km/h 70% 0 mm 0 W/m2
18:44 -7.3 °C -12.2 °C 1023.6 hPa Calm   1.6 km/h 68% 0 mm 0 W/m2
18:50 -7.2 °C -12.1 °C 1023.6 hPa Calm     68% 0 mm 0 W/m2
18:56 -7.1 °C -12.3 °C 1023.6 hPa West 1.6 km/h 1.6 km/h 66% 0 mm 0 W/m2
19:02 -7 °C -12.5 °C 1023.2 hPa West 1.6 km/h 3.2 km/h 65% 0 mm 0 W/m2
19:08 -6.9 °C -12.6 °C 1023.2 hPa West 3.2 km/h 4.8 km/h 64% 0 mm 0 W/m2
19:14 -6.9 °C -12.4 °C 1023.2 hPa West 3.2 km/h 8 km/h 65% 0 mm 0 W/m2
19:20 -6.9 °C -12.6 °C 1023.2 hPa SW 3.2 km/h 4.8 km/h 64% 0 mm 0 W/m2
19:26 -6.9 °C -12.9 °C 1023.2 hPa WSW 3.2 km/h 9.7 km/h 62% 0 mm 0 W/m2
19:32 -6.9 °C -12.9 °C 1023.2 hPa West 4.8 km/h 6.4 km/h 62% 0 mm 0 W/m2
19:38 -6.9 °C -13.2 °C 1023.2 hPa WSW 4.8 km/h 6.4 km/h 61% 0 mm 0 W/m2
19:44 -6.9 °C -13.2 °C 1023.2 hPa West 6.4 km/h 9.7 km/h 61% 0 mm 0 W/m2
19:50 -7 °C -13.3 °C 1022.9 hPa West 4.8 km/h 6.4 km/h 61% 0 mm 0 W/m2
19:56 -7 °C -13.1 °C 1022.9 hPa West 3.2 km/h 8 km/h 62% 0 mm 0 W/m2
20:02 -7.1 °C -13.3 °C 1022.9 hPa WSW 4.8 km/h 8 km/h 61% 0 mm 0 W/m2
20:08 -7.2 °C -13.6 °C 1022.9 hPa West 4.8 km/h 8 km/h 60% 0 mm 0 W/m2
20:14 -7.2 °C -13.5 °C 1022.9 hPa NW 4.8 km/h 6.4 km/h 61% 0 mm 0 W/m2
20:20 -7.3 °C -13.6 °C 1022.9 hPa West 4.8 km/h 4.8 km/h 61% 0 mm 0 W/m2
20:26 -7.4 °C -13.7 °C 1022.9 hPa SW 4.8 km/h 8 km/h 61% 0 mm 0 W/m2
20:32 -7.6 °C -13.8 °C 1022.9 hPa West 4.8 km/h 4.8 km/h 61% 0 mm 0 W/m2
20:38 -7.6 °C -14.1 °C 1022.9 hPa West 4.8 km/h 12.9 km/h 60% 0 mm 0 W/m2
20:44 -7.7 °C -14.2 °C 1022.9 hPa West 4.8 km/h 4.8 km/h 60% 0 mm 0 W/m2
20:50 -7.8 °C -14.4 °C 1022.6 hPa WSW 6.4 km/h 6.4 km/h 59% 0 mm 0 W/m2
20:56 -7.9 °C -14.6 °C 1022.6 hPa WNW 6.4 km/h 11.3 km/h 59% 0 mm 0 W/m2
21:02 -8.1 °C -14.4 °C 1022.6 hPa WSW 4.8 km/h 6.4 km/h 60% 0 mm 0 W/m2
21:08 -8.2 °C -14.6 °C 1022.6 hPa West 3.2 km/h 8 km/h 60% 0 mm 0 W/m2
21:14 -8.3 °C -14.5 °C 1022.9 hPa WSW 3.2 km/h 8 km/h 61% 0 mm 0 W/m2
21:20 -8.4 °C -14.4 °C 1022.9 hPa West 3.2 km/h 4.8 km/h 62% 0 mm 0 W/m2
21:26 -8.4 °C -14.4 °C 1022.9 hPa WNW 3.2 km/h 11.3 km/h 62% 0 mm 0 W/m2
21:32 -8.5 °C -14.5 °C 1022.9 hPa SW 4.8 km/h 8 km/h 62% 0 mm 0 W/m2
21:38 -8.5 °C -14.3 °C 1022.9 hPa West 4.8 km/h 8 km/h 63% 0 mm 0 W/m2
21:44 -8.6 °C -14.3 °C 1022.6 hPa West 4.8 km/h 4.8 km/h 63% 0 mm 0 W/m2
21:50 -8.7 °C -14.4 °C 1022.6 hPa West 3.2 km/h 4.8 km/h 63% 0 mm 0 W/m2
21:56 -8.8 °C -14.6 °C 1022.6 hPa West 3.2 km/h 4.8 km/h 63% 0 mm 0 W/m2
22:02 -8.9 °C -14.7 °C 1022.6 hPa WSW 3.2 km/h 3.2 km/h 63% 0 mm 0 W/m2
22:08 -8.9 °C -14.7 °C 1022.6 hPa WSW 3.2 km/h 4.8 km/h 63% 0 mm 0 W/m2
22:14 -8.9 °C -14.7 °C 1022.2 hPa SW 4.8 km/h 4.8 km/h 63% 0 mm 0 W/m2
22:20 -8.9 °C -14.5 °C 1022.2 hPa SW 4.8 km/h 4.8 km/h 64% 0 mm 0 W/m2
22:26 -8.8 °C -14.6 °C 1022.2 hPa NW 4.8 km/h 8 km/h 63% 0 mm 0 W/m2
22:32 -8.8 °C -14.6 °C 1022.2 hPa West 4.8 km/h 8 km/h 63% 0 mm 0 W/m2
22:38 -8.7 °C -14.7 °C 1022.2 hPa WSW 6.4 km/h 11.3 km/h 62% 0 mm 0 W/m2
22:44 -8.7 °C -14.9 °C 1022.2 hPa WSW 8 km/h 9.7 km/h 61% 0 mm 0 W/m2
22:50 -8.8 °C -15.2 °C 1022.2 hPa WNW 6.4 km/h 6.4 km/h 60% 0 mm 0 W/m2
22:56 -8.8 °C -15.3 °C 1022.2 hPa WNW 6.4 km/h 6.4 km/h 59% 0 mm 0 W/m2
23:02 -8.8 °C -15.4 °C 1021.9 hPa WSW 8 km/h 12.9 km/h 59% 0 mm 0 W/m2
23:08 -8.9 °C -15.4 °C 1021.9 hPa West 6.4 km/h 12.9 km/h 59% 0 mm 0 W/m2
23:14 -8.9 °C -15.5 °C 1021.9 hPa WSW 6.4 km/h 11.3 km/h 59% 0 mm 0 W/m2
23:20 -8.9 °C -15.3 °C 1021.9 hPa SW 6.4 km/h 8 km/h 60% 0 mm 0 W/m2
23:26 -8.9 °C -15.3 °C 1021.9 hPa WSW 6.4 km/h 8 km/h 60% 0 mm 0 W/m2
23:32 -9.1 °C -15.6 °C 1021.6 hPa SSW 8 km/h 8 km/h 59% 0 mm 0 W/m2
23:38 -9.1 °C -15.7 °C 1021.6 hPa WSW 8 km/h 8 km/h 59% 0 mm 0 W/m2
23:44 -9.2 °C -15.7 °C 1021.6 hPa WSW 8 km/h 20.9 km/h 59% 0 mm 0 W/m2
23:50 -9.2 °C -15.8 °C 1021.6 hPa SW 8 km/h 11.3 km/h 59% 0 mm 0 W/m2
23:56 -9.3 °C -16.1 °C 1021.6 hPa WSW 8 km/h 12.9 km/h 58% 0 mm 0 W/m2
Country Meadow, Clay, NY, USA
Compliments of Weather Underground - 2 mb